sensor_id;sensor_type;location;lat;lon;timestamp;pressure;altitude;pressure_sealevel;temperature;humidity
54882;BME280;40775;51.448;4.742;2024-03-23T00:54:18;101112.63;;;8.89;100.00
54882;BME280;40775;51.448;4.742;2024-03-23T00:56:44;101101.06;;;8.83;100.00
54882;BME280;40775;51.448;4.742;2024-03-23T00:59:10;101108.13;;;8.85;100.00
54882;BME280;40775;51.448;4.742;2024-03-23T01:01:36;101104.72;;;8.88;100.00
54882;BME280;40775;51.448;4.742;2024-03-23T01:04:03;101105.41;;;8.82;100.00
54882;BME280;40775;51.448;4.742;2024-03-23T01:06:29;101108.88;;;8.81;100.00
54882;BME280;40775;51.448;4.742;2024-03-23T01:08:55;101105.31;;;8.79;100.00
54882;BME280;40775;51.448;4.742;2024-03-23T01:11:21;101111.50;;;8.81;100.00
54882;BME280;40775;51.448;4.742;2024-03-23T01:13:47;101099.06;;;8.76;100.00
54882;BME280;40775;51.448;4.742;2024-03-23T01:16:13;101094.00;;;8.80;100.00
54882;BME280;40775;51.448;4.742;2024-03-23T01:18:39;101089.56;;;8.78;100.00
54882;BME280;40775;51.448;4.742;2024-03-23T01:21:05;101094.84;;;8.79;100.00
54882;BME280;40775;51.448;4.742;2024-03-23T01:23:31;101102.75;;;8.81;100.00
54882;BME280;40775;51.448;4.742;2024-03-23T01:25:57;101102.66;;;8.78;100.00
54882;BME280;40775;51.448;4.742;2024-03-23T01:28:23;101099.97;;;8.76;100.00
54882;BME280;40775;51.448;4.742;2024-03-23T01:30:49;101100.81;;;8.75;100.00
54882;BME280;40775;51.448;4.742;2024-03-23T01:33:15;101095.69;;;8.78;100.00
54882;BME280;40775;51.448;4.742;2024-03-23T01:35:41;101093.03;;;8.77;100.00
54882;BME280;40775;51.448;4.742;2024-03-23T01:38:07;101093.03;;;8.77;100.00
54882;BME280;40775;51.448;4.742;2024-03-23T01:40:33;101087.72;;;8.75;100.00
54882;BME280;40775;51.448;4.742;2024-03-23T01:43:05;101096.47;;;8.76;100.00
54882;BME280;40775;51.448;4.742;2024-03-23T01:45:34;101090.34;;;8.75;100.00
54882;BME280;40775;51.448;4.742;2024-03-23T01:48:00;101089.41;;;8.73;100.00
54882;BME280;40775;51.448;4.742;2024-03-23T01:50:27;101089.44;;;8.75;100.00
54882;BME280;40775;51.448;4.742;2024-03-23T01:52:54;101093.84;;;8.76;100.00
54882;BME280;40775;51.448;4.742;2024-03-23T01:55:20;101087.84;;;8.78;100.00
54882;BME280;40775;51.448;4.742;2024-03-23T01:57:46;101092.13;;;8.76;100.00
54882;BME280;40775;51.448;4.742;2024-03-23T02:00:13;101084.38;;;8.79;100.00
54882;BME280;40775;51.448;4.742;2024-03-23T02:02:46;101079.16;;;8.79;100.00
54882;BME280;40775;51.448;4.742;2024-03-23T02:05:13;101080.84;;;8.77;100.00
54882;BME280;40775;51.448;4.742;2024-03-23T02:07:40;101075.78;;;8.83;100.00
54882;BME280;40775;51.448;4.742;2024-03-23T02:10:11;101072.22;;;8.81;100.00
54882;BME280;40775;51.448;4.742;2024-03-23T02:12:40;101078.22;;;8.77;100.00
54882;BME280;40775;51.448;4.742;2024-03-23T02:15:06;101067.38;;;8.66;100.00
54882;BME280;40775;51.448;4.742;2024-03-23T02:17:34;101072.38;;;8.59;100.00
54882;BME280;40775;51.448;4.742;2024-03-23T02:20:02;101069.72;;;8.57;100.00
54882;BME280;40775;51.448;4.742;2024-03-23T02:22:39;101074.91;;;8.56;100.00
54882;BME280;40775;51.448;4.742;2024-03-23T02:25:06;101068.84;;;8.57;100.00
54882;BME280;40775;51.448;4.742;2024-03-23T02:27:33;101070.94;;;8.42;100.00
54882;BME280;40775;51.448;4.742;2024-03-23T02:30:00;101072.66;;;8.41;100.00
54882;BME280;40775;51.448;4.742;2024-03-23T02:32:26;101074.53;;;8.45;100.00
54882;BME280;40775;51.448;4.742;2024-03-23T02:34:52;101071.50;;;8.33;100.00
54882;BME280;40775;51.448;4.742;2024-03-23T02:37:19;101074.97;;;8.32;100.00
54882;BME280;40775;51.448;4.742;2024-03-23T02:39:44;101066.28;;;8.33;100.00
54882;BME280;40775;51.448;4.742;2024-03-23T02:42:10;101060.00;;;8.28;100.00
54882;BME280;40775;51.448;4.742;2024-03-23T02:44:37;101060.19;;;8.07;100.00
54882;BME280;40775;51.448;4.742;2024-03-23T02:47:03;101065.59;;;8.13;100.00
54882;BME280;40775;51.448;4.742;2024-03-23T02:49:29;101062.31;;;8.19;100.00
54882;BME280;40775;51.448;4.742;2024-03-23T02:51:55;101066.66;;;8.18;100.00
54882;BME280;40775;51.448;4.742;2024-03-23T02:54:21;101058.31;;;8.03;100.00
54882;BME280;40775;51.448;4.742;2024-03-23T02:56:47;101065.34;;;8.05;100.00
54882;BME280;40775;51.448;4.742;2024-03-23T02:59:13;101066.16;;;8.03;100.00
54882;BME280;40775;51.448;4.742;2024-03-23T03:01:39;101072.13;;;7.99;100.00
54882;BME280;40775;51.448;4.742;2024-03-23T03:04:05;101068.66;;;8.00;100.00
54882;BME280;40775;51.448;4.742;2024-03-23T03:06:31;101069.41;;;7.96;100.00
54882;BME280;40775;51.448;4.742;2024-03-23T03:08:57;101061.84;;;7.80;100.00
54882;BME280;40775;51.448;4.742;2024-03-23T03:11:24;101059.44;;;7.86;100.00
54882;BME280;40775;51.448;4.742;2024-03-23T03:13:50;101055.63;;;7.76;100.00
54882;BME280;40775;51.448;4.742;2024-03-23T03:16:16;101052.28;;;7.80;100.00
54882;BME280;40775;51.448;4.742;2024-03-23T03:18:42;101050.84;;;7.64;100.00
54882;BME280;40775;51.448;4.742;2024-03-23T03:21:08;101042.47;;;7.73;100.00
54882;BME280;40775;51.448;4.742;2024-03-23T03:23:40;101042.41;;;7.71;100.00
54882;BME280;40775;51.448;4.742;2024-03-23T03:26:06;101044.63;;;7.61;100.00
54882;BME280;40775;51.448;4.742;2024-03-23T03:28:33;101050.41;;;7.52;100.00
54882;BME280;40775;51.448;4.742;2024-03-23T03:31:00;101051.25;;;7.51;100.00
54882;BME280;40775;51.448;4.742;2024-03-23T03:33:27;101044.16;;;7.47;100.00
54882;BME280;40775;51.448;4.742;2024-03-23T03:35:54;101041.59;;;7.49;100.00
54882;BME280;40775;51.448;4.742;2024-03-23T03:38:20;101045.19;;;7.52;100.00
54882;BME280;40775;51.448;4.742;2024-03-23T03:40:46;101042.97;;;7.39;100.00
54882;BME280;40775;51.448;4.742;2024-03-23T03:43:13;101049.25;;;7.44;100.00
54882;BME280;40775;51.448;4.742;2024-03-23T03:45:39;101033.50;;;7.41;100.00
54882;BME280;40775;51.448;4.742;2024-03-23T03:48:06;101043.09;;;7.42;100.00
54882;BME280;40775;51.448;4.742;2024-03-23T03:50:32;101037.41;;;7.30;100.00
54882;BME280;40775;51.448;4.742;2024-03-23T03:52:58;101039.81;;;7.24;100.00
54882;BME280;40775;51.448;4.742;2024-03-23T03:55:24;101039.75;;;7.22;100.00
54882;BME280;40775;51.448;4.742;2024-03-23T03:57:50;101026.44;;;7.15;100.00
54882;BME280;40775;51.448;4.742;2024-03-23T04:00:16;101024.75;;;7.17;100.00
54882;BME280;40775;51.448;4.742;2024-03-23T04:02:42;101031.72;;;7.16;100.00
54882;BME280;40775;51.448;4.742;2024-03-23T04:05:08;101037.63;;;7.12;100.00
54882;BME280;40775;51.448;4.742;2024-03-23T04:07:34;101034.84;;;7.07;100.00
54882;BME280;40775;51.448;4.742;2024-03-23T04:10:00;101028.44;;;6.99;100.00
54882;BME280;40775;51.448;4.742;2024-03-23T04:12:27;101029.41;;;7.01;100.00
54882;BME280;40775;51.448;4.742;2024-03-23T04:14:53;101028.34;;;6.96;100.00
54882;BME280;40775;51.448;4.742;2024-03-23T04:17:19;101043.00;;;6.93;100.00
54882;BME280;40775;51.448;4.742;2024-03-23T04:19:45;101045.72;;;6.96;100.00
54882;BME280;40775;51.448;4.742;2024-03-23T04:22:11;101040.50;;;6.96;100.00
54882;BME280;40775;51.448;4.742;2024-03-23T04:24:37;101041.28;;;6.93;100.00
54882;BME280;40775;51.448;4.742;2024-03-23T04:27:03;101041.09;;;6.89;100.00
54882;BME280;40775;51.448;4.742;2024-03-23T04:29:29;101044.66;;;6.91;100.00
54882;BME280;40775;51.448;4.742;2024-03-23T04:31:55;101040.38;;;6.93;100.00
54882;BME280;40775;51.448;4.742;2024-03-23T04:34:22;101044.72;;;6.92;100.00
54882;BME280;40775;51.448;4.742;2024-03-23T04:36:51;101035.94;;;6.90;100.00
54882;BME280;40775;51.448;4.742;2024-03-23T04:39:17;101039.34;;;6.88;100.00
54882;BME280;40775;51.448;4.742;2024-03-23T04:41:43;101026.41;;;6.91;100.00
54882;BME280;40775;51.448;4.742;2024-03-23T04:44:09;101023.06;;;6.95;100.00
54882;BME280;40775;51.448;4.742;2024-03-23T04:46:36;101028.34;;;6.96;100.00
54882;BME280;40775;51.448;4.742;2024-03-23T04:49:02;101030.78;;;6.92;100.00
54882;BME280;40775;51.448;4.742;2024-03-23T04:51:36;101029.72;;;6.87;100.00
54882;BME280;40775;51.448;4.742;2024-03-23T04:54:07;101026.13;;;6.85;100.00
54882;BME280;40775;51.448;4.742;2024-03-23T04:56:33;101027.75;;;6.81;100.00
54882;BME280;40775;51.448;4.742;2024-03-23T04:58:59;101036.13;;;6.72;100.00
54882;BME280;40775;51.448;4.742;2024-03-23T05:01:27;101032.97;;;6.81;100.00
54882;BME280;40775;51.448;4.742;2024-03-23T05:03:54;101030.06;;;6.73;100.00
54882;BME280;40775;51.448;4.742;2024-03-23T05:06:20;101023.03;;;6.71;100.00
54882;BME280;40775;51.448;4.742;2024-03-23T05:08:46;101022.19;;;6.72;100.00
54882;BME280;40775;51.448;4.742;2024-03-23T05:11:12;101022.91;;;6.68;100.00
54882;BME280;40775;51.448;4.742;2024-03-23T05:13:38;101018.34;;;6.62;100.00
54882;BME280;40775;51.448;4.742;2024-03-23T05:16:04;101024.69;;;6.69;100.00
54882;BME280;40775;51.448;4.742;2024-03-23T05:18:30;101021.97;;;6.66;100.00
54882;BME280;40775;51.448;4.742;2024-03-23T05:20:58;101029.66;;;6.63;100.00
54882;BME280;40775;51.448;4.742;2024-03-23T05:23:26;101029.78;;;6.66;100.00
54882;BME280;40775;51.448;4.742;2024-03-23T05:25:52;101027.34;;;6.70;100.00
54882;BME280;40775;51.448;4.742;2024-03-23T05:28:24;101029.13;;;6.71;100.00
54882;BME280;40775;51.448;4.742;2024-03-23T05:30:57;101031.78;;;6.73;100.00
54882;BME280;40775;51.448;4.742;2024-03-23T05:33:24;101031.78;;;6.73;100.00
54882;BME280;40775;51.448;4.742;2024-03-23T05:36:01;101031.91;;;6.76;100.00
54882;BME280;40775;51.448;4.742;2024-03-23T05:38:27;101025.06;;;6.79;100.00
54882;BME280;40775;51.448;4.742;2024-03-23T05:41:00;101024.06;;;6.76;100.00
54882;BME280;40775;51.448;4.742;2024-03-23T05:43:27;101020.03;;;6.84;100.00
54882;BME280;40775;51.448;4.742;2024-03-23T05:45:59;101025.13;;;6.81;100.00
54882;BME280;40775;51.448;4.742;2024-03-23T05:48:26;101013.03;;;6.83;100.00
54882;BME280;40775;51.448;4.742;2024-03-23T05:50:52;101021.91;;;6.87;100.00
54882;BME280;40775;51.448;4.742;2024-03-23T05:53:19;101012.34;;;6.87;100.00
54882;BME280;40775;51.448;4.742;2024-03-23T05:55:49;101015.91;;;6.89;100.00
54882;BME280;40775;51.448;4.742;2024-03-23T05:58:17;101013.28;;;6.89;100.00
54882;BME280;40775;51.448;4.742;2024-03-23T06:00:43;101024.00;;;6.97;100.00
54882;BME280;40775;51.448;4.742;2024-03-23T06:03:10;101020.56;;;6.98;100.00
54882;BME280;40775;51.448;4.742;2024-03-23T06:05:39;101029.06;;;6.92;100.00
54882;BME280;40775;51.448;4.742;2024-03-23T06:08:05;101025.06;;;7.02;100.00
54882;BME280;40775;51.448;4.742;2024-03-23T06:10:35;101028.69;;;7.05;100.00
54882;BME280;40775;51.448;4.742;2024-03-23T06:13:01;101031.44;;;7.10;100.00
54882;BME280;40775;51.448;4.742;2024-03-23T06:15:27;101031.34;;;7.07;100.00
54882;BME280;40775;51.448;4.742;2024-03-23T06:17:53;101028.09;;;7.12;100.00
54882;BME280;40775;51.448;4.742;2024-03-23T06:20:19;101034.22;;;7.13;100.00
54882;BME280;40775;51.448;4.742;2024-03-23T06:22:45;101021.84;;;7.09;100.00
54882;BME280;40775;51.448;4.742;2024-03-23T06:25:11;101028.09;;;7.12;100.00
54882;BME280;40775;51.448;4.742;2024-03-23T06:27:38;101027.06;;;7.09;100.00
54882;BME280;40775;51.448;4.742;2024-03-23T06:30:06;101026.44;;;7.15;100.00
54882;BME280;40775;51.448;4.742;2024-03-23T06:32:32;101042.03;;;7.13;100.00
54882;BME280;40775;51.448;4.742;2024-03-23T06:34:59;101030.88;;;7.17;100.00
54882;BME280;40775;51.448;4.742;2024-03-23T06:37:26;101035.38;;;7.21;100.00
54882;BME280;40775;51.448;4.742;2024-03-23T06:39:52;101037.03;;;7.19;100.00
54882;BME280;40775;51.448;4.742;2024-03-23T06:42:18;101029.03;;;7.15;100.00
54882;BME280;40775;51.448;4.742;2024-03-23T06:44:44;101037.97;;;7.21;100.00
54882;BME280;40775;51.448;4.742;2024-03-23T06:47:10;101024.88;;;7.20;100.00
54882;BME280;40775;51.448;4.742;2024-03-23T06:49:36;101036.41;;;7.26;100.00
54882;BME280;40775;51.448;4.742;2024-03-23T06:52:02;101045.97;;;7.26;100.00
54882;BME280;40775;51.448;4.742;2024-03-23T06:54:28;101040.91;;;7.30;100.00
54882;BME280;40775;51.448;4.742;2024-03-23T06:56:54;101042.97;;;7.39;100.00
54882;BME280;40775;51.448;4.742;2024-03-23T06:59:20;101048.31;;;7.42;100.00
54882;BME280;40775;51.448;4.742;2024-03-23T07:01:46;101049.47;;;7.50;100.00
54882;BME280;40775;51.448;4.742;2024-03-23T07:04:12;101043.53;;;7.54;100.00
54882;BME280;40775;51.448;4.742;2024-03-23T07:06:45;101043.63;;;7.57;100.00
54882;BME280;40775;51.448;4.742;2024-03-23T07:09:11;101043.72;;;7.60;100.00
54882;BME280;40775;51.448;4.742;2024-03-23T07:11:37;101041.34;;;7.66;100.00
54882;BME280;40775;51.448;4.742;2024-03-23T07:14:04;101047.75;;;7.74;100.00
54882;BME280;40775;51.448;4.742;2024-03-23T07:16:30;101052.38;;;7.83;100.00
54882;BME280;40775;51.448;4.742;2024-03-23T07:18:57;101051.50;;;7.83;100.00
54882;BME280;40775;51.448;4.742;2024-03-23T07:21:23;101048.34;;;7.93;100.00
54882;BME280;40775;51.448;4.742;2024-03-23T07:23:49;101046.06;;;8.02;100.00
54882;BME280;40775;51.448;4.742;2024-03-23T07:26:15;101048.88;;;8.08;100.00
54882;BME280;40775;51.448;4.742;2024-03-23T07:28:42;101048.25;;;8.15;100.00
54882;BME280;40775;51.448;4.742;2024-03-23T07:31:13;101030.97;;;8.20;100.00
54882;BME280;40775;51.448;4.742;2024-03-23T07:33:48;101035.59;;;8.27;100.00
54882;BME280;40775;51.448;4.742;2024-03-23T07:36:14;101049.03;;;8.38;100.00
54882;BME280;40775;51.448;4.742;2024-03-23T07:38:45;101045.56;;;8.39;100.00
54882;BME280;40775;51.448;4.742;2024-03-23T07:41:16;101040.53;;;8.45;100.00
54882;BME280;40775;51.448;4.742;2024-03-23T07:43:46;101037.44;;;8.57;100.00
54882;BME280;40775;51.448;4.742;2024-03-23T07:46:13;101038.97;;;8.50;100.00
54882;BME280;40775;51.448;4.742;2024-03-23T07:48:39;101046.09;;;8.54;100.00
54882;BME280;40775;51.448;4.742;2024-03-23T07:51:16;101029.03;;;8.67;100.00
54882;BME280;40775;51.448;4.742;2024-03-23T07:53:44;101019.84;;;8.80;100.00
54882;BME280;40775;51.448;4.742;2024-03-23T07:56:15;101026.13;;;8.86;100.00
54882;BME280;40775;51.448;4.742;2024-03-23T07:58:42;101019.03;;;8.82;100.00
54882;BME280;40775;51.448;4.742;2024-03-23T08:01:11;101018.50;;;8.94;100.00
54882;BME280;40775;51.448;4.742;2024-03-23T08:03:39;101014.47;;;9.05;100.00
54882;BME280;40775;51.448;4.742;2024-03-23T08:06:17;101012.31;;;9.22;100.00
54882;BME280;40775;51.448;4.742;2024-03-23T08:08:45;101007.34;;;9.01;100.00
54882;BME280;40775;51.448;4.742;2024-03-23T08:11:11;101012.88;;;8.80;100.00
54882;BME280;40775;51.448;4.742;2024-03-23T08:13:40;101008.56;;;8.82;100.00
54882;BME280;40775;51.448;4.742;2024-03-23T08:16:06;101012.03;;;8.81;100.00
54882;BME280;40775;51.448;4.742;2024-03-23T08:18:32;101002.75;;;8.92;100.00
54882;BME280;40775;51.448;4.742;2024-03-23T08:21:04;101010.22;;;9.09;100.00
54882;BME280;40775;51.448;4.742;2024-03-23T08:23:34;101002.72;;;9.22;100.00
54882;BME280;40775;51.448;4.742;2024-03-23T08:26:11;101005.56;;;9.30;100.00
54882;BME280;40775;51.448;4.742;2024-03-23T08:28:37;101004.19;;;9.43;100.00
54882;BME280;40775;51.448;4.742;2024-03-23T08:31:10;101007.53;;;9.37;100.00
54882;BME280;40775;51.448;4.742;2024-03-23T08:33:37;100998.34;;;9.53;100.00
54882;BME280;40775;51.448;4.742;2024-03-23T08:36:08;101000.41;;;9.65;100.00
54882;BME280;40775;51.448;4.742;2024-03-23T08:38:35;101003.34;;;9.77;100.00
54882;BME280;40775;51.448;4.742;2024-03-23T08:41:04;100990.63;;;9.92;100.00
54882;BME280;40775;51.448;4.742;2024-03-23T08:43:32;101003.22;;;9.72;100.00
54882;BME280;40775;51.448;4.742;2024-03-23T08:46:15;100985.72;;;9.71;100.00
54882;BME280;40775;51.448;4.742;2024-03-23T08:48:44;101001.63;;;9.77;100.00
54882;BME280;40775;51.448;4.742;2024-03-23T08:51:13;100991.78;;;10.03;100.00
54882;BME280;40775;51.448;4.742;2024-03-23T08:53:40;100986.59;;;10.06;100.00
54882;BME280;40775;51.448;4.742;2024-03-23T08:56:07;100983.22;;;10.10;100.00
54882;BME280;40775;51.448;4.742;2024-03-23T08:58:36;100980.81;;;10.19;100.00
54882;BME280;40775;51.448;4.742;2024-03-23T09:01:11;100982.00;;;10.31;100.00
54882;BME280;40775;51.448;4.742;2024-03-23T09:03:39;100979.34;;;10.29;100.00
54882;BME280;40775;51.448;4.742;2024-03-23T09:06:09;100983.03;;;10.39;100.00
54882;BME280;40775;51.448;4.742;2024-03-23T09:08:36;100980.19;;;10.28;100.00
54882;BME280;40775;51.448;4.742;2024-03-23T09:11:11;100981.28;;;10.38;100.00
54882;BME280;40775;51.448;4.742;2024-03-23T09:13:37;100976.94;;;10.40;100.00
54882;BME280;40775;51.448;4.742;2024-03-23T09:16:05;100979.38;;;10.68;100.00
54882;BME280;40775;51.448;4.742;2024-03-23T09:18:33;100984.00;;;10.80;100.00
54882;BME280;40775;51.448;4.742;2024-03-23T09:20:59;100999.22;;;10.57;100.00
54882;BME280;40775;51.448;4.742;2024-03-23T09:23:25;101018.66;;;9.60;100.00
54882;BME280;40775;51.448;4.742;2024-03-23T09:25:51;101013.88;;;9.15;100.00
54882;BME280;40775;51.448;4.742;2024-03-23T09:28:17;101013.63;;;9.36;100.00
54882;BME280;40775;51.448;4.742;2024-03-23T09:30:43;101006.72;;;9.40;100.00
54882;BME280;40775;51.448;4.742;2024-03-23T09:33:13;101015.63;;;9.46;100.00
54882;BME280;40775;51.448;4.742;2024-03-23T09:35:41;101007.50;;;9.69;100.00
54882;BME280;40775;51.448;4.742;2024-03-23T09:38:08;101004.19;;;9.76;100.00
54882;BME280;40775;51.448;4.742;2024-03-23T09:40:40;101005.28;;;9.84;100.00
54882;BME280;40775;51.448;4.742;2024-03-23T09:43:07;100999.06;;;9.47;100.00
54882;BME280;40775;51.448;4.742;2024-03-23T09:45:39;100997.97;;;9.08;100.00
54882;BME280;40775;51.448;4.742;2024-03-23T09:48:08;101004.81;;;9.66;100.00
54882;BME280;40775;51.448;4.742;2024-03-23T09:50:39;101001.41;;;9.70;100.00
54882;BME280;40775;51.448;4.742;2024-03-23T09:53:07;101002.53;;;9.79;100.00
54882;BME280;40775;51.448;4.742;2024-03-23T09:55:34;101002.41;;;9.75;100.00
54882;BME280;40775;51.448;4.742;2024-03-23T09:58:02;100991.63;;;9.97;100.00
54882;BME280;40775;51.448;4.742;2024-03-23T10:00:28;100984.78;;;10.02;100.00
54882;BME280;40775;51.448;4.742;2024-03-23T10:02:58;100981.06;;;9.94;100.00
54882;BME280;40775;51.448;4.742;2024-03-23T10:05:29;100990.78;;;9.98;100.00
54882;BME280;40775;51.448;4.742;2024-03-23T10:07:57;100999.50;;;9.97;100.00
54882;BME280;40775;51.448;4.742;2024-03-23T10:10:25;100997.53;;;9.88;100.00
54882;BME280;40775;51.448;4.742;2024-03-23T10:12:52;100986.91;;;9.84;100.00
54882;BME280;40775;51.448;4.742;2024-03-23T10:15:22;101000.91;;;10.17;100.00
54882;BME280;40775;51.448;4.742;2024-03-23T10:17:48;100999.97;;;10.15;100.00
54882;BME280;40775;51.448;4.742;2024-03-23T10:20:22;100989.56;;;10.18;100.00
54882;BME280;40775;51.448;4.742;2024-03-23T10:22:50;100997.09;;;10.06;100.00
54882;BME280;40775;51.448;4.742;2024-03-23T10:25:18;101003.34;;;9.77;100.00
54882;BME280;40775;51.448;4.742;2024-03-23T10:27:59;101001.34;;;9.67;100.00
54882;BME280;40775;51.448;4.742;2024-03-23T10:30:26;101005.44;;;9.57;100.00
54882;BME280;40775;51.448;4.742;2024-03-23T10:33:11;101008.84;;;9.54;100.00
54882;BME280;40775;51.448;4.742;2024-03-23T10:35:38;101017.22;;;9.40;100.00
54882;BME280;40775;51.448;4.742;2024-03-23T10:38:08;101019.56;;;9.01;100.00
54882;BME280;40775;51.448;4.742;2024-03-23T10:40:37;101004.19;;;9.11;100.00
54882;BME280;40775;51.448;4.742;2024-03-23T10:43:04;101008.97;;;9.27;100.00
54882;BME280;40775;51.448;4.742;2024-03-23T10:45:31;100995.69;;;9.51;100.00
54882;BME280;40775;51.448;4.742;2024-03-23T10:47:57;100985.28;;;9.54;100.00
54882;BME280;40775;51.448;4.742;2024-03-23T10:50:23;100997.25;;;9.78;100.00
54882;BME280;40775;51.448;4.742;2024-03-23T10:52:49;100998.50;;;9.92;100.00
54882;BME280;40775;51.448;4.742;2024-03-23T10:55:19;101000.50;;;10.02;100.00
54882;BME280;40775;51.448;4.742;2024-03-23T10:57:55;101003.56;;;10.19;100.00
54882;BME280;40775;51.448;4.742;2024-03-23T11:00:22;101006.81;;;9.76;100.00
54882;BME280;40775;51.448;4.742;2024-03-23T11:02:49;101000.53;;;9.06;100.00
54882;BME280;40775;51.448;4.742;2024-03-23T11:05:30;101004.22;;;9.44;100.00
54882;BME280;40775;51.448;4.742;2024-03-23T11:07:57;101012.50;;;8.98;100.00
54882;BME280;40775;51.448;4.742;2024-03-23T11:10:31;101000.72;;;8.82;100.00
54882;BME280;40775;51.448;4.742;2024-03-23T11:15:43;100991.03;;;9.10;100.00
54882;BME280;40775;51.448;4.742;2024-03-23T11:18:09;101013.72;;;9.09;100.00
54882;BME280;40775;51.448;4.742;2024-03-23T11:20:36;101004.44;;;8.90;100.00
54882;BME280;40775;51.448;4.742;2024-03-23T11:23:03;101008.69;;;8.87;100.00
54882;BME280;40775;51.448;4.742;2024-03-23T11:25:29;101011.69;;;9.01;100.00
54882;BME280;40775;51.448;4.742;2024-03-23T11:28:08;101013.00;;;8.85;100.00
54882;BME280;40775;51.448;4.742;2024-03-23T11:30:35;101002.56;;;8.86;100.00
54882;BME280;40775;51.448;4.742;2024-03-23T11:33:02;100999.28;;;8.93;100.00
54882;BME280;40775;51.448;4.742;2024-03-23T11:35:38;101001.84;;;8.92;100.00
54882;BME280;40775;51.448;4.742;2024-03-23T11:38:16;100994.22;;;8.99;100.00
54882;BME280;40775;51.448;4.742;2024-03-23T11:40:49;100990.84;;;9.04;100.00
54882;BME280;40775;51.448;4.742;2024-03-23T11:43:17;100993.53;;;9.05;100.00
54882;BME280;40775;51.448;4.742;2024-03-23T11:45:48;100992.25;;;9.22;100.00
54882;BME280;40775;51.448;4.742;2024-03-23T11:48:17;100998.84;;;9.08;100.00
54882;BME280;40775;51.448;4.742;2024-03-23T11:50:46;100995.81;;;8.94;100.00
54882;BME280;40775;51.448;4.742;2024-03-23T11:53:21;100992.19;;;8.89;100.00
54882;BME280;40775;51.448;4.742;2024-03-23T11:55:59;100995.56;;;8.85;100.00
54882;BME280;40775;51.448;4.742;2024-03-23T11:58:26;101002.53;;;8.85;100.00
54882;BME280;40775;51.448;4.742;2024-03-23T12:01:01;101000.31;;;8.70;100.00
54882;BME280;40775;51.448;4.742;2024-03-23T12:03:29;100978.53;;;8.71;100.00
54882;BME280;40775;51.448;4.742;2024-03-23T12:05:58;100976.69;;;8.67;100.00
54882;BME280;40775;51.448;4.742;2024-03-23T12:08:32;100963.69;;;8.70;100.00
54882;BME280;40775;51.448;4.742;2024-03-23T12:11:12;100963.84;;;8.76;100.00
54882;BME280;40775;51.448;4.742;2024-03-23T12:13:39;100948.59;;;8.91;100.00
54882;BME280;40775;51.448;4.742;2024-03-23T12:16:17;100950.88;;;8.79;100.00
54882;BME280;40775;51.448;4.742;2024-03-23T12:18:48;100944.06;;;8.84;100.00
54882;BME280;40775;51.448;4.742;2024-03-23T12:21:15;100951.84;;;8.83;100.00
54882;BME280;40775;51.448;4.742;2024-03-23T12:23:43;100945.06;;;8.89;100.00
54882;BME280;40775;51.448;4.742;2024-03-23T12:26:13;100936.31;;;8.89;100.00
54882;BME280;40775;51.448;4.742;2024-03-23T12:28:39;100947.97;;;9.00;100.00
54882;BME280;40775;51.448;4.742;2024-03-23T12:31:05;100934.34;;;9.12;100.00
54882;BME280;40775;51.448;4.742;2024-03-23T12:33:31;100940.47;;;9.12;100.00
54882;BME280;40775;51.448;4.742;2024-03-23T12:35:57;100938.56;;;9.38;100.00
54882;BME280;40775;51.448;4.742;2024-03-23T12:38:24;100932.00;;;9.55;100.00
54882;BME280;40775;51.448;4.742;2024-03-23T12:40:50;100930.97;;;9.49;100.00
54882;BME280;40775;51.448;4.742;2024-03-23T12:43:18;100924.56;;;9.38;100.00
54882;BME280;40775;51.448;4.742;2024-03-23T12:45:48;100921.06;;;9.37;100.00
54882;BME280;40775;51.448;4.742;2024-03-23T12:48:15;100908.94;;;9.41;100.00
54882;BME280;40775;51.448;4.742;2024-03-23T12:50:41;100917.03;;;9.50;100.00
54882;BME280;40775;51.448;4.742;2024-03-23T12:53:07;100925.69;;;9.47;100.00
54882;BME280;40775;51.448;4.742;2024-03-23T12:55:37;100924.66;;;9.41;100.00
54882;BME280;40775;51.448;4.742;2024-03-23T12:58:03;100913.44;;;9.13;100.00
54882;BME280;40775;51.448;4.742;2024-03-23T13:00:30;100906.00;;;9.30;100.00
54882;BME280;40775;51.448;4.742;2024-03-23T13:02:56;100913.50;;;9.49;100.00
54882;BME280;40775;51.448;4.742;2024-03-23T13:05:22;100909.66;;;9.70;100.00
54882;BME280;40775;51.448;4.742;2024-03-23T13:07:48;100892.84;;;9.96;100.00
54882;BME280;40775;51.448;4.742;2024-03-23T13:10:14;100897.38;;;10.03;100.00
54882;BME280;40775;51.448;4.742;2024-03-23T13:12:41;100888.78;;;10.10;100.00
54882;BME280;40775;51.448;4.742;2024-03-23T13:15:09;100878.94;;;10.38;100.00
54882;BME280;40775;51.448;4.742;2024-03-23T13:17:35;100878.06;;;10.39;100.00
54882;BME280;40775;51.448;4.742;2024-03-23T13:20:01;100869.50;;;10.46;100.00
54882;BME280;40775;51.448;4.742;2024-03-23T13:22:28;100863.97;;;10.34;100.00
54882;BME280;40775;51.448;4.742;2024-03-23T13:24:54;100858.81;;;10.38;100.00
54882;BME280;40775;51.448;4.742;2024-03-23T13:27:20;100853.72;;;10.44;100.00
54882;BME280;40775;51.448;4.742;2024-03-23T13:29:46;100868.06;;;10.62;100.00
54882;BME280;40775;51.448;4.742;2024-03-23T13:32:13;100860.03;;;10.54;100.00
54882;BME280;40775;51.448;4.742;2024-03-23T13:34:39;100843.25;;;10.46;100.00
54882;BME280;40775;51.448;4.742;2024-03-23T13:37:06;100849.38;;;10.45;100.00
54882;BME280;40775;51.448;4.742;2024-03-23T13:39:33;100849.03;;;10.72;100.00
54882;BME280;40775;51.448;4.742;2024-03-23T13:41:59;100844.13;;;10.90;100.00
54882;BME280;40775;51.448;4.742;2024-03-23T13:44:25;100850.06;;;10.80;100.00
54882;BME280;40775;51.448;4.742;2024-03-23T13:46:52;100838.91;;;10.93;100.00